Deutschnofen Obereggen
30.08.2026, 18:50















40 Stazions meteo
| Favoric | Stazion | Autëza | Data - ëura |
t (°C) |
rH (%) |
dd |
ff (km/h) |
bb (km/h) |
hs (cm) |
|---|---|---|---|---|---|---|---|---|---|
| Deutschnofen Obereggen | 2123 m | 30.08.2026, 18:50 | 16.8 | 69 | SV(216°) | 1.1 | 5.4 | 6 | |
| Graun Elferspitze | 2922 m | 31.08.2026, 07:40 | 4.5 | 100 | V(290°) | 18.0 | 22.7 | - | |
| Graun Schöneben | 2037 m | 31.08.2026, 07:40 | 9.9 | 97 | NW(293°) | 0.0 | 0.0 | 3 | |
| Gsies Pfinnalm | 2152 m | 31.08.2026, 07:40 | 11.9 | 84 | N(15°) | 0.4 | 2.2 | 11 | |
| Gsies Regelspitze | 2741 m | 31.08.2026, 07:10 | 6.8 | 99 | V(276°) | 9.4 | 12.6 | - | |
| Jaufenkamm | 2145 m | 31.08.2026, 07:40 | 10.4 | 100 | O(100°) | 2.5 | 5.8 | - | |
| Ladurns | 1959 m | 31.08.2026, 07:40 | 10.8 | 98 | NO(26.8°) | 3.2 | 9.4 | 2 | |
| Lungiarü Kreuzkofeljoch | 2295 m | 31.08.2026, 07:40 | 10.6 | 93 | V(251°) | 4.7 | 9.0 | 10 | |
| Macaion | 1860 m | 31.08.2026, 07:45 | 12.5 | 89 | SV(211.3°) | 1.8 | 4.7 | 6 | |
| Melag Pratznerberg | 2420 m | 31.08.2026, 07:40 | 8.5 | 87 | N(348°) | 7.2 | 13.7 | 7 | |
| Pens Tramintal | 2127 m | 31.08.2026, 07:40 | 11.0 | 100 | N(353°) | 2.2 | 4.3 | -1 | |
| Pfelders Grünboden | 2011 m | 31.08.2026, 07:40 | 11.3 | 100 | SO(123°) | 1.1 | 2.9 | -3 | |
| Pfelders Rauhjoch | 2911 m | 31.08.2026, 07:40 | 5.0 | 100 | NW(309°) | 11.2 | 15.8 | - | |
| Pfunders Dannelspitz | 2804 m | 31.08.2026, 07:40 | 7.1 | 100 | N(339°) | 2.5 | 7.9 | - | |
| Pfunders Stutzenalm | 2045 m | 31.08.2026, 07:40 | 11.6 | 95 | V(257°) | 0.0 | 0.0 | 1 | |
| Plose | 2477 m | 31.08.2026, 07:40 | 7.4 | 100 | SV(236.1°) | 10.8 | 12.6 | - | |
| Prags Rossalm | 2345 m | 31.08.2026, 07:40 | 9.9 | 89 | NW(315°) | 0.0 | 1.1 | 0 | |
| Predoi Malga Merbe | 2002 m | 31.08.2026, 07:40 | 11.5 | 86 | O(105°) | 2.5 | 5.8 | 3 | |
| Prettau Lengspitze | 3104 m | 31.08.2026, 07:40 | 4.2 | 100 | S(187°) | 2.5 | 5.8 | - | |
| Proveis Samerberg | 2144 m | 31.08.2026, 07:40 | 9.6 | 100 | N(2°) | 0.0 | 0.0 | 2 | |
| Ratschings Wasserfaller Alm | 1904 m | 31.08.2026, 07:40 | 12.0 | 98 | SV(243°) | 0.7 | 7.2 | -4 | |
| Rein i.T. Tristenboden | 2445 m | 31.08.2026, 07:40 | 8.4 | 93 | O(106°) | 0.0 | 1.4 | 2 | |
| Rittner Horn | 2261 m | 31.08.2026, 07:30 | 9.7 | 87 | SV(213°) | 10.1 | 13.0 | - | |
| Schleis Kloangruebes | 2459 m | 31.08.2026, 07:40 | 9.4 | 85 | S(162°) | 1.4 | 4.0 | 1 | |
| Schnals Finail | 1950 m | 31.08.2026, 07:40 | 11.1 | 97 | - | - | - | 37 | |
| Schnals Grawand | 3192 m | 31.08.2026, 07:40 | 4.5 | 90 | N(17°) | 7.2 | 13.0 | - | |
| Schnals Teufelsegg | 3033 m | 31.08.2026, 07:40 | 5.4 | 82 | - | - | - | 0 | |
| Seiser Alm Zallinger | 2050 m | 31.08.2026, 07:45 | 10.0 | 100 | O(99°) | 0.4 | 3.6 | 10 | |
| Sexten Rotwandwiesen | 1906 m | 31.08.2026, 07:40 | 12.4 | 77 | V(250°) | 0.7 | 4.7 | 2 | |
| Signalgipfel Wilder Freiger | 3389 m | 31.08.2026, 07:40 | 1.7 | 100 | NW(312°) | 3.6 | 10.1 | - | |
| Sulden Madritsch | 2825 m | 31.08.2026, 07:40 | 6.9 | 77 | NW(307°) | 3.2 | 6.5 | 1 | |
| Sulden Schöntaufspitze | 3326 m | 31.08.2026, 07:40 | 2.7 | 93 | N(338°) | 20.5 | 23.0 | - | |
| Timmelsalm | 2231 m | 31.08.2026, 07:40 | 10.5 | 99 | NO(54°) | 0.0 | 0.0 | 5 | |
| Toblach Hochebenkofel | 2901 m | 31.08.2026, 07:00 | 5.4 | 96 | NW(301.2°) | 6.8 | 13.3 | - | |
| Trafoi Zaufenkofel | 2485 m | 31.08.2026, 07:40 | 9.6 | 85 | NW(301°) | 8.6 | 10.4 | - | |
| Ulten Rossbänke | 2299 m | 31.08.2026, 07:30 | 8.1 | 99 | SV(225°) | 2.5 | 9.7 | -3 | |
| Ulten Weißbrunnspitz | 3252 m | 31.08.2026, 07:40 | 4.0 | 78 | NW(310°) | 13.0 | 17.3 | - | |
| Val Badia - Piz La Ila | 1997 m | 31.08.2026, 07:40 | 11.0 | 98 | O(72°) | 0.0 | 0.0 | 2 | |
| Val Badia Piz Pisciadù | 2981 m | 31.08.2026, 07:40 | 7.4 | 68 | V(254°) | 16.2 | 25.2 | - | |
| Weissenbach Fadner Alm | 2154 m | 31.08.2026, 07:40 | 10.8 | 93 | SV(218°) | 0.7 | 2.5 | 1 |
Lijënda di dac muserei:
t:Temperatura dl'aria (°C)
rH:Tume relatif (%)
dd:Direzion dl vënt
ff:Slune mesan dl vënt (km/h)
bb:Majer slune dl vënt (km/h)
hs:Autëza dla nëif (cm)
sd:Dureda dl surëdl (h)
EG:Raiazion dl surëdl (W/m²)